createdAt,value
2023-08-09T00:02:15.748Z,99113.03
2023-08-09T00:04:45.489Z,99118.19
2023-08-09T00:07:13.734Z,99121.00
2023-08-09T00:09:42.254Z,99136.31
2023-08-09T00:12:10.542Z,99125.38
2023-08-09T00:14:39.054Z,99131.84
2023-08-09T00:17:07.724Z,99156.41
2023-08-09T00:19:36.159Z,99142.84
2023-08-09T00:22:05.822Z,99135.97
2023-08-09T00:24:35.716Z,99110.09
2023-08-09T00:27:04.318Z,99134.09
2023-08-09T00:29:33.075Z,99130.66
2023-08-09T00:32:02.323Z,99130.81
2023-08-09T00:34:30.641Z,99146.13
2023-08-09T00:37:02.484Z,99142.22
2023-08-09T00:39:32.436Z,99134.44
2023-08-09T00:42:03.739Z,99142.53
2023-08-09T00:44:32.159Z,99147.69
2023-08-09T00:47:01.637Z,99143.91
2023-08-09T00:49:31.790Z,99135.50
2023-08-09T00:52:02.058Z,99151.47
2023-08-09T00:54:40.658Z,99145.16
2023-08-09T00:57:13.712Z,99151.34
2023-08-09T00:59:48.008Z,99171.84
2023-08-09T01:02:16.244Z,99158.34
2023-08-09T01:04:46.565Z,99158.59
2023-08-09T01:07:24.154Z,99157.03
2023-08-09T01:10:05.769Z,99153.22
2023-08-09T01:12:40.419Z,99149.56
2023-08-09T01:15:17.995Z,99148.31
2023-08-09T01:17:50.466Z,99148.00
2023-08-09T01:20:24.678Z,99154.31
2023-08-09T01:23:02.049Z,99153.78
2023-08-09T01:25:32.204Z,99161.25
2023-08-09T01:28:05.273Z,99163.75
2023-08-09T01:30:35.528Z,99155.63
2023-08-09T01:33:07.376Z,99165.91
2023-08-09T01:35:46.846Z,99161.56
2023-08-09T01:38:23.364Z,99164.66
2023-08-09T01:40:55.262Z,99169.13
2023-08-09T01:43:25.186Z,99174.97
2023-08-09T01:45:54.211Z,99172.00
2023-08-09T01:48:22.790Z,99170.16
2023-08-09T01:50:51.174Z,99186.84
2023-08-09T01:53:19.611Z,99191.56
2023-08-09T01:55:47.811Z,99178.53
2023-08-09T01:58:17.410Z,99194.78
2023-08-09T02:00:45.847Z,99190.59
2023-08-09T02:03:16.405Z,99187.59
2023-08-09T02:05:44.737Z,99195.28
2023-08-09T02:08:15.756Z,99191.38
2023-08-09T02:10:43.853Z,99194.94
2023-08-09T02:13:16.507Z,99199.78
2023-08-09T02:15:47.366Z,99185.72
2023-08-09T02:18:15.618Z,99197.13
2023-08-09T02:20:44.214Z,99203.63
2023-08-09T02:23:14.593Z,99188.09
2023-08-09T02:25:43.160Z,99204.31
2023-08-09T02:28:14.577Z,99181.06
2023-08-09T02:30:47.172Z,99208.34
2023-08-09T02:33:16.005Z,99214.78
2023-08-09T02:35:54.902Z,99199.22
2023-08-09T02:38:28.573Z,99202.75
2023-08-09T02:40:58.749Z,99196.19
2023-08-09T02:43:27.736Z,99213.66
2023-08-09T02:45:57.974Z,99212.41
2023-08-09T02:48:28.791Z,99222.53
2023-08-09T02:51:02.694Z,99200.31
2023-08-09T02:53:36.067Z,99218.81
2023-08-09T02:56:04.502Z,99217.28
2023-08-09T02:58:33.074Z,99223.63
2023-08-09T03:01:06.641Z,99230.00
2023-08-09T03:03:34.837Z,99226.16
2023-08-09T03:06:03.277Z,99230.97
2023-08-09T03:08:33.996Z,99227.22
2023-08-09T03:11:02.606Z,99228.00
2023-08-09T03:13:33.086Z,99223.97
2023-08-09T03:16:03.264Z,99239.78
2023-08-09T03:18:33.386Z,99235.50
2023-08-09T03:21:03.204Z,99244.09
2023-08-09T03:23:31.652Z,99237.22
2023-08-09T03:26:02.917Z,99244.56
2023-08-09T03:28:32.117Z,99245.84
2023-08-09T03:31:03.055Z,99252.28
2023-08-09T03:33:33.217Z,99241.94
2023-08-09T03:36:03.551Z,99259.38
2023-08-09T03:38:31.893Z,99249.31
2023-08-09T03:41:00.495Z,99260.59
2023-08-09T03:43:29.053Z,99256.44
2023-08-09T03:45:58.401Z,99229.25
2023-08-09T03:48:29.570Z,99251.25
2023-08-09T03:51:12.349Z,99261.97
2023-08-09T03:53:41.095Z,99267.03
2023-08-09T03:56:09.376Z,99274.50
2023-08-09T03:58:42.563Z,99272.34
2023-08-09T04:01:11.052Z,99261.88
2023-08-09T04:03:41.233Z,99271.88
2023-08-09T04:06:13.962Z,99285.63
2023-08-09T04:08:44.786Z,99282.81
2023-08-09T04:11:15.320Z,99293.81
2023-08-09T04:13:43.785Z,99282.66
2023-08-09T04:16:12.163Z,99271.41
2023-08-09T04:18:41.056Z,99295.75
2023-08-09T04:21:14.614Z,99283.75
2023-08-09T04:23:49.091Z,99304.97
2023-08-09T04:26:17.247Z,99303.34
2023-08-09T04:28:48.325Z,99288.75
2023-08-09T04:31:19.222Z,99295.06
2023-08-09T04:33:50.854Z,99294.19
2023-08-09T04:36:23.612Z,99302.09
2023-08-09T04:39:00.428Z,99308.09
2023-08-09T04:41:32.786Z,99323.56
2023-08-09T04:44:03.453Z,99325.44
2023-08-09T04:46:32.444Z,99323.28
2023-08-09T04:49:07.619Z,99337.31
2023-08-09T04:51:38.639Z,99336.84
2023-08-09T04:54:07.345Z,99349.94
2023-08-09T04:56:35.964Z,99338.09
2023-08-09T04:59:07.076Z,99357.56
2023-08-09T05:01:35.682Z,99347.28
2023-08-09T05:04:04.021Z,99357.56
2023-08-09T05:06:36.687Z,99358.69
2023-08-09T05:09:05.668Z,99347.19
2023-08-09T05:11:37.936Z,99362.16
2023-08-09T05:14:08.908Z,99372.00
2023-08-09T05:16:37.519Z,99374.00
2023-08-09T05:19:06.000Z,99383.56
2023-08-09T05:21:37.815Z,99376.50
2023-08-09T05:24:06.643Z,99392.88
2023-08-09T05:26:35.055Z,99390.34
2023-08-09T05:29:06.548Z,99400.19
2023-08-09T05:31:37.164Z,99392.19
2023-08-09T05:34:11.186Z,99391.72
2023-08-09T05:36:40.987Z,99391.19
2023-08-09T05:39:09.660Z,99398.50
2023-08-09T05:41:38.337Z,99405.50
2023-08-09T05:44:09.177Z,99418.13
2023-08-09T05:46:37.794Z,99423.72
2023-08-09T05:49:12.241Z,99423.25
2023-08-09T05:51:41.974Z,99419.22
2023-08-09T05:54:16.281Z,99413.03
2023-08-09T05:56:47.199Z,99435.09
2023-08-09T05:59:15.831Z,99424.25
2023-08-09T06:01:44.230Z,99431.72
2023-08-09T06:04:12.548Z,99418.81
2023-08-09T06:06:42.210Z,99431.88
2023-08-09T06:09:12.770Z,99422.97
2023-08-09T06:11:42.521Z,99436.28
2023-08-09T06:14:14.055Z,99445.06
2023-08-09T06:16:48.083Z,99447.00
2023-08-09T06:19:16.900Z,99449.78
2023-08-09T06:21:46.550Z,99454.69
2023-08-09T06:24:14.959Z,99469.72
2023-08-09T06:26:46.048Z,99471.66
2023-08-09T06:29:14.602Z,99469.72
2023-08-09T06:31:45.572Z,99473.59
2023-08-09T06:34:13.896Z,99492.69
2023-08-09T06:36:44.315Z,99494.41
2023-08-09T06:39:14.072Z,99490.53
2023-08-09T06:41:42.600Z,99493.25
2023-08-09T06:44:13.250Z,99493.34
2023-08-09T06:46:46.398Z,99501.03
2023-08-09T06:49:14.747Z,99500.59
2023-08-09T06:51:48.925Z,99508.59
2023-08-09T06:54:18.710Z,99510.47
2023-08-09T06:56:49.671Z,99508.31
2023-08-09T06:59:18.115Z,99531.81
2023-08-09T07:01:50.328Z,99504.47
2023-08-09T07:04:18.954Z,99528.13
2023-08-09T07:06:49.649Z,99533.03
2023-08-09T07:09:20.312Z,99540.22
2023-08-09T07:11:48.510Z,99519.94
2023-08-09T07:14:16.682Z,99548.84
2023-08-09T07:16:47.085Z,99559.97
2023-08-09T07:19:15.407Z,99543.91
2023-08-09T07:21:46.002Z,99566.00
2023-08-09T07:24:14.527Z,99565.91
2023-08-09T07:26:49.526Z,99566.19
2023-08-09T07:29:17.858Z,99577.22
2023-08-09T07:31:46.360Z,99584.13
2023-08-09T07:34:15.931Z,99593.25
2023-08-09T07:36:46.246Z,99593.97
2023-08-09T07:39:14.537Z,99585.88
2023-08-09T07:41:43.935Z,99600.59
2023-08-09T07:44:13.603Z,99596.63
2023-08-09T07:46:41.761Z,99599.56
2023-08-09T07:49:10.160Z,99601.91
2023-08-09T07:51:38.555Z,99606.66
2023-08-09T07:54:07.018Z,99613.25
2023-08-09T07:56:35.479Z,99604.50
2023-08-09T07:59:04.248Z,99614.81
2023-08-09T08:01:34.432Z,99623.88
2023-08-09T08:04:06.570Z,99627.91
2023-08-09T08:06:34.968Z,99648.25
2023-08-09T08:09:03.644Z,99640.66
2023-08-09T08:11:31.879Z,99647.13
2023-08-09T08:14:01.724Z,99645.84
2023-08-09T08:16:30.878Z,99659.88
2023-08-09T08:19:00.646Z,99657.75
2023-08-09T08:21:28.927Z,99660.81
2023-08-09T08:23:58.253Z,99650.28
2023-08-09T08:26:27.136Z,99654.31
2023-08-09T08:28:55.312Z,99669.50
2023-08-09T08:31:23.898Z,99671.97
2023-08-09T08:33:52.783Z,99668.56
2023-08-09T08:36:30.643Z,99670.94
2023-08-09T08:39:00.522Z,99679.78
2023-08-09T08:41:30.275Z,99692.34
2023-08-09T08:43:58.630Z,99690.78
2023-08-09T08:46:29.671Z,99701.34
2023-08-09T08:49:02.960Z,99696.53
2023-08-09T08:51:33.501Z,99697.69
2023-08-09T08:54:01.979Z,99701.97
2023-08-09T08:56:33.166Z,99698.53
2023-08-09T08:59:05.093Z,99706.28
2023-08-09T09:01:35.755Z,99710.59
2023-08-09T09:04:04.210Z,99719.94
2023-08-09T09:06:34.909Z,99727.41
2023-08-09T09:09:15.227Z,99732.44
2023-08-09T09:11:45.317Z,99733.84
2023-08-09T09:14:14.714Z,99732.59
2023-08-09T09:16:44.417Z,99737.16
2023-08-09T09:19:14.525Z,99735.16
2023-08-09T09:21:44.263Z,99742.63
2023-08-09T09:24:13.273Z,99753.13
2023-08-09T09:26:41.971Z,99749.88
2023-08-09T09:29:12.330Z,99749.69
2023-08-09T09:31:42.718Z,99759.94
2023-08-09T09:34:11.623Z,99732.44
2023-08-09T09:36:51.356Z,99774.41
2023-08-09T09:39:20.584Z,99777.41
2023-08-09T09:41:50.810Z,99770.97
2023-08-09T09:44:23.819Z,99775.53
2023-08-09T09:46:55.806Z,99781.31
2023-08-09T09:49:26.159Z,99788.78
2023-08-09T09:51:57.144Z,99791.78
2023-08-09T09:54:26.451Z,99797.69
2023-08-09T09:56:55.144Z,99797.09
2023-08-09T09:59:23.367Z,99801.56
2023-08-09T10:01:52.774Z,99775.81
2023-08-09T10:04:22.527Z,99802.88
2023-08-09T10:06:51.691Z,99810.84
2023-08-09T10:09:24.257Z,99808.44
2023-08-09T10:11:56.189Z,99823.69
2023-08-09T10:14:27.907Z,99816.38
2023-08-09T10:17:02.218Z,99833.34
2023-08-09T10:19:40.968Z,99834.91
2023-08-09T10:22:12.319Z,99835.94
2023-08-09T10:24:48.669Z,99839.81
2023-08-09T10:27:17.309Z,99841.84
2023-08-09T10:29:45.681Z,99855.63
2023-08-09T10:32:14.255Z,99855.22
2023-08-09T10:34:45.342Z,99859.50
2023-08-09T10:37:24.919Z,99858.94
2023-08-09T10:40:17.188Z,99866.41
2023-08-09T10:42:48.077Z,99873.16
2023-08-09T10:45:17.141Z,99870.84
2023-08-09T10:47:45.870Z,99879.63
2023-08-09T10:50:20.285Z,99879.91
2023-08-09T10:52:50.781Z,99898.72
2023-08-09T10:55:38.794Z,99897.03
2023-08-09T10:58:07.452Z,99898.34
2023-08-09T11:00:43.175Z,99901.13
2023-08-09T11:03:13.057Z,99902.47
2023-08-09T11:05:41.424Z,99899.50
2023-08-09T11:08:17.620Z,99878.31
2023-08-09T11:10:49.565Z,99916.44
2023-08-09T11:13:20.318Z,99912.44
2023-08-09T11:15:49.947Z,99907.31
2023-08-09T11:18:18.588Z,99923.34
2023-08-09T11:20:47.894Z,99933.59
2023-08-09T11:23:16.418Z,99929.97
2023-08-09T11:25:45.499Z,99937.28
2023-08-09T11:28:17.473Z,99950.19
2023-08-09T11:30:47.316Z,99955.63
2023-08-09T11:33:15.577Z,99955.28
2023-08-09T11:35:47.667Z,99959.03
2023-08-09T11:38:20.676Z,99930.41
2023-08-09T11:40:53.420Z,99955.28
2023-08-09T11:43:24.133Z,99967.09
2023-08-09T11:45:55.966Z,99982.63
2023-08-09T11:48:57.217Z,99985.38
2023-08-09T11:51:25.820Z,99995.16
2023-08-09T11:53:56.452Z,99979.88
2023-08-09T11:56:25.186Z,100001.88
2023-08-09T11:58:57.196Z,100003.84
2023-08-09T12:01:39.496Z,100003.78
2023-08-09T12:04:10.285Z,99999.03
2023-08-09T12:06:41.574Z,99999.88
2023-08-09T12:09:33.214Z,100034.31
2023-08-09T12:12:05.759Z,100024.22
2023-08-09T12:14:36.992Z,100033.41
2023-08-09T12:17:06.327Z,100040.03
2023-08-09T12:19:34.655Z,100045.19
2023-08-09T12:22:05.351Z,100043.13
2023-08-09T12:24:36.994Z,100053.94
2023-08-09T12:27:06.624Z,100060.56
2023-08-09T12:29:37.127Z,100054.41
2023-08-09T12:32:06.201Z,100059.22
2023-08-09T12:34:34.916Z,100038.09
2023-08-09T12:37:06.735Z,100059.75
2023-08-09T12:39:36.032Z,100070.38
2023-08-09T12:42:04.938Z,100074.00
2023-08-09T12:44:33.636Z,100078.00
2023-08-09T12:47:06.412Z,100074.78
2023-08-09T12:49:34.616Z,100069.06
2023-08-09T12:52:04.520Z,100082.34
2023-08-09T12:54:33.538Z,100084.34
2023-08-09T12:57:00.929Z,100095.75
2023-08-09T12:59:29.508Z,100094.28
2023-08-09T13:01:57.818Z,100113.81
2023-08-09T13:04:27.391Z,100093.94
2023-08-09T13:06:56.521Z,100114.16
2023-08-09T13:09:24.829Z,100126.13
2023-08-09T13:12:05.722Z,100119.47
2023-08-09T13:14:34.122Z,100118.03
2023-08-09T13:17:02.225Z,100127.72
2023-08-09T13:19:36.930Z,100124.94
2023-08-09T13:22:05.651Z,100128.78
2023-08-09T13:24:34.580Z,100146.63
2023-08-09T13:27:05.806Z,100144.47
2023-08-09T13:29:34.146Z,100162.44
2023-08-09T13:32:03.238Z,100159.81
2023-08-09T13:34:33.376Z,100157.00
2023-08-09T13:37:01.931Z,100160.44
2023-08-09T13:39:31.656Z,100155.31
2023-08-09T13:42:00.918Z,100162.31
2023-08-09T13:44:29.893Z,100145.19
2023-08-09T13:46:58.125Z,100175.63
2023-08-09T13:49:26.817Z,100180.34
2023-08-09T13:51:56.591Z,100155.00
2023-08-09T13:54:24.779Z,100184.03
2023-08-09T13:56:52.959Z,100188.94
2023-08-09T13:59:21.035Z,100194.91
2023-08-09T14:01:49.327Z,100200.25
2023-08-09T14:04:17.805Z,100196.66
2023-08-09T14:06:47.734Z,100203.69
2023-08-09T14:09:18.261Z,100207.56
2023-08-09T14:11:46.695Z,100206.38
2023-08-09T14:14:15.070Z,100219.53
2023-08-09T14:16:43.570Z,100211.63
2023-08-09T14:19:14.305Z,100212.34
2023-08-09T14:21:42.497Z,100211.84
2023-08-09T14:24:10.734Z,100196.59
2023-08-09T14:26:43.243Z,100216.34
2023-08-09T14:29:11.558Z,100230.75
2023-08-09T14:31:39.988Z,100236.47
2023-08-09T14:34:08.535Z,100243.38
2023-08-09T14:36:36.773Z,100252.03
2023-08-09T14:39:05.427Z,100240.06
2023-08-09T14:41:33.767Z,100262.56
2023-08-09T14:44:04.436Z,100268.00
2023-08-09T14:46:32.873Z,100252.03
2023-08-09T14:51:35.383Z,100264.94
2023-08-09T14:54:03.858Z,100254.00
2023-08-09T14:56:35.591Z,100266.72
2023-08-09T14:59:06.941Z,100264.25
2023-08-09T15:01:35.307Z,100262.97
2023-08-09T15:04:10.946Z,100255.13
2023-08-09T15:06:41.244Z,100253.44
2023-08-09T15:09:11.747Z,100275.84
2023-08-09T15:11:39.949Z,100294.88
2023-08-09T15:14:12.207Z,100291.75
2023-08-09T15:16:40.561Z,100293.25
2023-08-09T15:19:08.804Z,100282.41
2023-08-09T15:21:36.964Z,100316.56
2023-08-09T15:24:06.771Z,100317.53
2023-08-09T15:26:35.181Z,100316.84
2023-08-09T15:29:04.412Z,100302.34
2023-08-09T15:31:34.484Z,100327.66
2023-08-09T15:34:05.925Z,100330.75
2023-08-09T15:36:34.413Z,100342.44
2023-08-09T15:39:05.689Z,100344.59
2023-08-09T15:41:34.018Z,100345.97
2023-08-09T15:44:02.724Z,100333.50
2023-08-09T15:49:07.998Z,100353.91
2023-08-09T15:51:37.145Z,100348.41
2023-08-09T15:54:09.249Z,100368.75
2023-08-09T15:56:39.970Z,100378.47
2023-08-09T15:59:08.590Z,100380.31
2023-08-09T16:01:37.318Z,100376.75
2023-08-09T16:04:11.719Z,100370.16
2023-08-09T16:06:40.294Z,100369.31
2023-08-09T16:09:17.027Z,100380.75
2023-08-09T16:11:46.339Z,100375.69
2023-08-09T16:14:20.115Z,100386.16
2023-08-09T16:16:49.771Z,100387.88
2023-08-09T16:19:28.417Z,100396.25
2023-08-09T16:22:05.598Z,100396.78
2023-08-09T16:24:37.197Z,100400.53
2023-08-09T16:27:18.992Z,100378.94
2023-08-09T16:29:47.209Z,100419.09
2023-08-09T16:32:15.838Z,100411.16
2023-08-09T16:34:45.804Z,100410.03
2023-08-09T16:37:14.785Z,100411.59
2023-08-09T16:39:43.125Z,100406.06
2023-08-09T16:42:12.808Z,100413.78
2023-08-09T16:44:41.597Z,100408.75
2023-08-09T16:47:10.114Z,100408.06
2023-08-09T16:49:38.726Z,100421.56
2023-08-09T16:52:09.855Z,100421.47
2023-08-09T16:54:38.678Z,100427.38
2023-08-09T16:57:07.436Z,100426.44
2023-08-09T16:59:36.117Z,100436.69
2023-08-09T17:02:05.420Z,100433.88
2023-08-09T17:04:34.058Z,100432.75
2023-08-09T17:07:02.568Z,100444.84
2023-08-09T17:09:32.427Z,100455.25
2023-08-09T17:12:00.920Z,100445.44
2023-08-09T17:14:29.169Z,100450.34
2023-08-09T17:16:58.282Z,100467.91
2023-08-09T17:19:27.178Z,100454.44
2023-08-09T17:21:55.630Z,100460.63
2023-08-09T17:24:24.556Z,100456.66
2023-08-09T17:26:56.846Z,100469.19
2023-08-09T17:29:25.320Z,100409.44
2023-08-09T17:31:54.709Z,100461.81
2023-08-09T17:34:24.175Z,100474.59
2023-08-09T17:36:54.897Z,100467.88
2023-08-09T17:39:23.952Z,100471.16
2023-08-09T17:41:54.429Z,100483.69
2023-08-09T17:44:22.672Z,100491.91
2023-08-09T17:46:51.092Z,100483.88
2023-08-09T17:49:19.461Z,100481.09
2023-08-09T17:51:47.711Z,100485.47
2023-08-09T17:54:16.125Z,100489.00
2023-08-09T17:56:44.701Z,100493.44
2023-08-09T17:59:15.138Z,100490.63
2023-08-09T18:01:44.042Z,100491.34
2023-08-09T18:04:13.262Z,100496.03
2023-08-09T18:06:41.738Z,100505.59
2023-08-09T18:09:10.783Z,100514.88
2023-08-09T18:11:40.100Z,100512.50
2023-08-09T18:14:10.041Z,100496.31
2023-08-09T18:16:39.995Z,100513.41
2023-08-09T18:19:08.358Z,100510.44
2023-08-09T18:21:36.618Z,100519.31
2023-08-09T18:24:05.072Z,100514.66
2023-08-09T18:26:33.727Z,100526.63
2023-08-09T18:29:02.173Z,100526.22
2023-08-09T18:31:30.787Z,100538.69
2023-08-09T18:34:02.467Z,100538.75
2023-08-09T18:36:31.651Z,100538.56
2023-08-09T18:38:59.877Z,100517.81
2023-08-09T18:41:28.439Z,100545.00
2023-08-09T18:43:56.737Z,100547.00
2023-08-09T18:46:24.986Z,100559.50
2023-08-09T18:48:53.206Z,100558.34
2023-08-09T18:51:23.011Z,100562.28
2023-08-09T18:53:51.946Z,100566.13
2023-08-09T18:56:20.258Z,100566.59
2023-08-09T18:58:48.577Z,100570.09
2023-08-09T19:01:16.955Z,100578.34
2023-08-09T19:03:45.803Z,100577.47
2023-08-09T19:06:14.251Z,100590.91
2023-08-09T19:08:45.161Z,100576.66
2023-08-09T19:11:13.577Z,100570.97
2023-08-09T19:13:41.891Z,100568.78
2023-08-09T19:16:10.131Z,100580.38
2023-08-09T19:18:38.713Z,100575.63
2023-08-09T19:21:06.983Z,100578.34
2023-08-09T19:23:35.266Z,100581.16
2023-08-09T19:26:05.395Z,100586.41
2023-08-09T19:28:33.775Z,100589.88
2023-08-09T19:31:04.040Z,100598.09
2023-08-09T19:33:35.191Z,100593.59
2023-08-09T19:36:03.699Z,100591.56
2023-08-09T19:38:31.896Z,100603.28
2023-08-09T19:41:00.612Z,100593.44
2023-08-09T19:43:30.226Z,100596.69
2023-08-09T19:45:58.696Z,100603.59
2023-08-09T19:48:27.773Z,100603.06
2023-08-09T19:50:56.124Z,100607.94
2023-08-09T19:53:24.957Z,100611.66
2023-08-09T19:55:53.971Z,100623.59
2023-08-09T19:58:23.093Z,100618.38
2023-08-09T20:00:56.466Z,100628.69
2023-08-09T20:03:24.780Z,100628.63
2023-08-09T20:05:52.991Z,100625.41
2023-08-09T20:08:21.198Z,100639.22
2023-08-09T20:10:49.497Z,100646.28
2023-08-09T20:13:19.205Z,100639.56
2023-08-09T20:15:47.535Z,100628.78
2023-08-09T20:18:17.245Z,100625.41
2023-08-09T20:20:45.387Z,100632.72
2023-08-09T20:23:16.800Z,100625.47
2023-08-09T20:25:45.065Z,100634.47
2023-08-09T20:28:13.429Z,100638.94
2023-08-09T20:30:42.267Z,100642.66
2023-08-09T20:33:16.790Z,100631.00
2023-08-09T20:35:45.393Z,100641.53
2023-08-09T20:38:14.201Z,100636.97
2023-08-09T20:40:42.516Z,100634.78
2023-08-09T20:43:12.164Z,100645.44
2023-08-09T20:45:40.541Z,100647.63
2023-08-09T20:48:09.168Z,100654.91
2023-08-09T20:50:38.952Z,100651.56
2023-08-09T20:53:07.271Z,100648.28
2023-08-09T20:55:35.539Z,100648.19
2023-08-09T20:58:05.334Z,100664.81
2023-08-09T21:00:33.587Z,100668.56
2023-08-09T21:03:01.871Z,100668.47
2023-08-09T21:05:30.326Z,100667.66
2023-08-09T21:08:00.166Z,100660.13
2023-08-09T21:10:28.320Z,100663.38
2023-08-09T21:12:56.742Z,100666.34
2023-08-09T21:15:25.113Z,100673.72
2023-08-09T21:17:53.401Z,100667.59
2023-08-09T21:20:21.718Z,100674.53
2023-08-09T21:22:57.245Z,100663.88
2023-08-09T21:30:27.165Z,100678.69
2023-08-09T21:32:55.589Z,100676.63
2023-08-09T21:35:24.523Z,100676.72
2023-08-09T21:37:52.974Z,100681.38
2023-08-09T21:40:21.378Z,100681.94
2023-08-09T21:42:50.975Z,100690.59
2023-08-09T21:45:19.133Z,100690.88
2023-08-09T21:47:47.729Z,100688.03
2023-08-09T21:50:16.283Z,100697.00
2023-08-09T21:52:44.565Z,100690.28
2023-08-09T21:55:12.820Z,100687.03
2023-08-09T21:57:43.455Z,100692.09
2023-08-09T22:00:14.513Z,100696.09
2023-08-09T22:02:43.176Z,100701.53
2023-08-09T22:05:11.592Z,100692.03
2023-08-09T22:07:40.130Z,100704.84
2023-08-09T22:10:09.620Z,100703.63
2023-08-09T22:12:37.719Z,100715.63
2023-08-09T22:15:06.711Z,100714.63
2023-08-09T22:17:36.748Z,100711.16
2023-08-09T22:20:07.138Z,100709.53
2023-08-09T22:22:35.651Z,100705.69
2023-08-09T22:25:04.308Z,100700.31
2023-08-09T22:27:33.078Z,100702.41
2023-08-09T22:30:01.582Z,100703.38
2023-08-09T22:32:29.903Z,100708.38
2023-08-09T22:34:59.653Z,100702.59
2023-08-09T22:37:27.975Z,100707.22
2023-08-09T22:39:56.337Z,100711.03
2023-08-09T22:42:24.605Z,100710.56
2023-08-09T22:44:52.876Z,100696.59
2023-08-09T22:47:21.126Z,100706.03
2023-08-09T22:49:49.669Z,100702.91
2023-08-09T22:52:20.379Z,100701.28
2023-08-09T22:54:48.885Z,100714.03
2023-08-09T22:57:17.047Z,100710.28
2023-08-09T22:59:45.247Z,100714.63
2023-08-09T23:02:13.729Z,100718.09
2023-08-09T23:04:42.072Z,100722.25
2023-08-09T23:07:10.280Z,100715.66
2023-08-09T23:09:40.356Z,100719.16
2023-08-09T23:12:09.714Z,100718.91
2023-08-09T23:14:40.034Z,100719.88
2023-08-09T23:17:08.639Z,100724.59
2023-08-09T23:19:36.825Z,100722.44
2023-08-09T23:22:05.421Z,100722.59
2023-08-09T23:24:33.937Z,100726.09
2023-08-09T23:27:03.434Z,100727.59
2023-08-09T23:29:31.610Z,100721.84
2023-08-09T23:31:59.978Z,100731.88
2023-08-09T23:34:28.310Z,100730.47
2023-08-09T23:36:56.609Z,100730.78
2023-08-09T23:39:25.067Z,100729.38
2023-08-09T23:41:53.249Z,100743.94
2023-08-09T23:44:22.956Z,100739.44
2023-08-09T23:46:51.323Z,100742.63
2023-08-09T23:49:19.569Z,100744.59
2023-08-09T23:51:47.777Z,100749.38
2023-08-09T23:54:15.987Z,100758.22
2023-08-09T23:56:44.316Z,100763.28
2023-08-09T23:59:13.792Z,100756.16
